Aviation Digital Data Service (ADDS)

Output produced by METARs form (0022 UTC 17 December 2017)
found at http://www.aviationweather.gov/adds/metars/
 
KWWD 162355Z AUTO 22009KT 10SM CLR 04/M03 A3016 RMK AO2 SLP215 T00441028 10061 20039 53017